Milas, Turkey
Current Conditions -  °F | °C
As of 7:20 AM on Thursday 23 Oct 2014 (Local Time) from LTFE Reporting Station
Broken Clouds Broken Clouds  
Wind Chill: 20°   Ceiling: 10000
Heat Index: 20°   Visibility: 6mi
Dew Point: 15°   Wind: 10mph
Humidity: 73%   Direction: 130°SE
Pressure: 29.77"   Gusts: NA
Location:  37.32°N, 27.77°E
Report Text: LTFE 230420Z 13009KT 9999 FEW020CB SCT030 BKN100 20/15 Q1008 TEMPO TL0600 4000 TSRA
Loading
Personal Weather Stations






























Interactive Weather Map
Tropical Storm Tracking
New forecast layout! Learn more

10-Day Weather Forecast

Advertisements
Track Severe Weather on mobile